sensor_id;sensor_type;location;lat;lon;timestamp;P1;durP1;ratioP1;P2;durP2;ratioP2
45762;SDS011;37512;52.408;13.356;2022-10-14T00:03:21;30.48;;;15.65;;
45762;SDS011;37512;52.408;13.356;2022-10-14T00:07:22;22.63;;;15.00;;
45762;SDS011;37512;52.408;13.356;2022-10-14T00:11:25;24.38;;;16.27;;
45762;SDS011;37512;52.408;13.356;2022-10-14T00:15:29;27.85;;;15.68;;
45762;SDS011;37512;52.408;13.356;2022-10-14T00:19:31;23.08;;;16.02;;
45762;SDS011;37512;52.408;13.356;2022-10-14T00:23:32;25.58;;;15.38;;
45762;SDS011;37512;52.408;13.356;2022-10-14T00:27:33;24.00;;;13.30;;
45762;SDS011;37512;52.408;13.356;2022-10-14T00:31:35;21.98;;;13.60;;
45762;SDS011;37512;52.408;13.356;2022-10-14T00:35:37;22.05;;;13.25;;
45762;SDS011;37512;52.408;13.356;2022-10-14T00:39:38;19.90;;;13.40;;
45762;SDS011;37512;52.408;13.356;2022-10-14T00:48:01;23.35;;;14.57;;
45762;SDS011;37512;52.408;13.356;2022-10-14T00:56:19;22.50;;;13.25;;
45762;SDS011;37512;52.408;13.356;2022-10-14T01:00:24;18.65;;;12.73;;
45762;SDS011;37512;52.408;13.356;2022-10-14T01:04:29;26.23;;;13.15;;
45762;SDS011;37512;52.408;13.356;2022-10-14T01:08:33;23.55;;;13.52;;
45762;SDS011;37512;52.408;13.356;2022-10-14T01:25:36;18.05;;;11.77;;
45762;SDS011;37512;52.408;13.356;2022-10-14T01:34:04;21.70;;;14.25;;
45762;SDS011;37512;52.408;13.356;2022-10-14T01:38:13;21.45;;;14.80;;
45762;SDS011;37512;52.408;13.356;2022-10-14T01:46:24;25.20;;;13.73;;
45762;SDS011;37512;52.408;13.356;2022-10-14T01:50:27;18.75;;;12.90;;
45762;SDS011;37512;52.408;13.356;2022-10-14T01:54:33;22.05;;;14.30;;
45762;SDS011;37512;52.408;13.356;2022-10-14T01:58:39;23.05;;;13.23;;
45762;SDS011;37512;52.408;13.356;2022-10-14T02:02:42;22.63;;;13.25;;
45762;SDS011;37512;52.408;13.356;2022-10-14T02:06:50;19.70;;;13.35;;
45762;SDS011;37512;52.408;13.356;2022-10-14T02:11:07;18.50;;;12.30;;
45762;SDS011;37512;52.408;13.356;2022-10-14T02:20:11;19.92;;;13.00;;
45762;SDS011;37512;52.408;13.356;2022-10-14T02:28:25;15.40;;;10.75;;
45762;SDS011;37512;52.408;13.356;2022-10-14T02:32:29;20.00;;;11.02;;
45762;SDS011;37512;52.408;13.356;2022-10-14T02:36:32;17.92;;;11.27;;
45762;SDS011;37512;52.408;13.356;2022-10-14T02:40:39;17.60;;;11.52;;
45762;SDS011;37512;52.408;13.356;2022-10-14T02:44:52;20.95;;;12.30;;
45762;SDS011;37512;52.408;13.356;2022-10-14T02:52:56;15.18;;;10.57;;
45762;SDS011;37512;52.408;13.356;2022-10-14T02:56:57;18.42;;;12.43;;
45762;SDS011;37512;52.408;13.356;2022-10-14T03:00:59;19.98;;;13.05;;
45762;SDS011;37512;52.408;13.356;2022-10-14T03:05:00;16.33;;;11.15;;
45762;SDS011;37512;52.408;13.356;2022-10-14T03:09:02;18.67;;;13.10;;
45762;SDS011;37512;52.408;13.356;2022-10-14T03:13:03;19.80;;;12.77;;
45762;SDS011;37512;52.408;13.356;2022-10-14T03:17:05;22.30;;;13.80;;
45762;SDS011;37512;52.408;13.356;2022-10-14T03:21:06;17.30;;;12.55;;
45762;SDS011;37512;52.408;13.356;2022-10-14T03:25:08;24.20;;;13.30;;
45762;SDS011;37512;52.408;13.356;2022-10-14T03:29:09;25.48;;;13.60;;
45762;SDS011;37512;52.408;13.356;2022-10-14T03:33:11;22.38;;;14.18;;
45762;SDS011;37512;52.408;13.356;2022-10-14T03:37:15;24.05;;;12.80;;
45762;SDS011;37512;52.408;13.356;2022-10-14T03:41:16;19.48;;;14.00;;
45762;SDS011;37512;52.408;13.356;2022-10-14T03:45:18;25.15;;;14.00;;
45762;SDS011;37512;52.408;13.356;2022-10-14T03:49:19;21.23;;;13.32;;
45762;SDS011;37512;52.408;13.356;2022-10-14T03:53:21;19.65;;;13.02;;
45762;SDS011;37512;52.408;13.356;2022-10-14T03:57:22;19.20;;;12.57;;
45762;SDS011;37512;52.408;13.356;2022-10-14T04:01:24;22.85;;;12.77;;
45762;SDS011;37512;52.408;13.356;2022-10-14T04:05:25;18.80;;;12.75;;
45762;SDS011;37512;52.408;13.356;2022-10-14T04:09:32;20.17;;;12.43;;
45762;SDS011;37512;52.408;13.356;2022-10-14T04:13:34;21.17;;;12.77;;
45762;SDS011;37512;52.408;13.356;2022-10-14T04:17:36;24.50;;;12.93;;
45762;SDS011;37512;52.408;13.356;2022-10-14T04:21:38;19.65;;;12.38;;
45762;SDS011;37512;52.408;13.356;2022-10-14T04:25:39;18.33;;;11.57;;
45762;SDS011;37512;52.408;13.356;2022-10-14T04:29:41;20.55;;;11.82;;
45762;SDS011;37512;52.408;13.356;2022-10-14T04:33:42;20.88;;;12.57;;
45762;SDS011;37512;52.408;13.356;2022-10-14T04:37:43;23.50;;;12.57;;
45762;SDS011;37512;52.408;13.356;2022-10-14T04:41:45;25.33;;;13.05;;
45762;SDS011;37512;52.408;13.356;2022-10-14T04:45:46;18.95;;;12.25;;
45762;SDS011;37512;52.408;13.356;2022-10-14T04:49:48;22.30;;;14.05;;
45762;SDS011;37512;52.408;13.356;2022-10-14T04:53:50;23.27;;;13.95;;
45762;SDS011;37512;52.408;13.356;2022-10-14T04:57:51;20.65;;;12.90;;
45762;SDS011;37512;52.408;13.356;2022-10-14T05:01:53;21.40;;;13.20;;
45762;SDS011;37512;52.408;13.356;2022-10-14T05:05:54;18.85;;;13.32;;
45762;SDS011;37512;52.408;13.356;2022-10-14T05:09:56;29.15;;;12.73;;
45762;SDS011;37512;52.408;13.356;2022-10-14T05:13:57;24.25;;;14.60;;
45762;SDS011;37512;52.408;13.356;2022-10-14T05:17:59;28.40;;;16.10;;
45762;SDS011;37512;52.408;13.356;2022-10-14T05:22:00;26.73;;;13.52;;
45762;SDS011;37512;52.408;13.356;2022-10-14T05:26:02;23.30;;;14.50;;
45762;SDS011;37512;52.408;13.356;2022-10-14T05:30:03;28.08;;;15.05;;
45762;SDS011;37512;52.408;13.356;2022-10-14T05:34:05;23.63;;;13.45;;
45762;SDS011;37512;52.408;13.356;2022-10-14T05:38:06;28.27;;;14.55;;
45762;SDS011;37512;52.408;13.356;2022-10-14T05:42:08;27.27;;;14.95;;
45762;SDS011;37512;52.408;13.356;2022-10-14T05:46:09;27.08;;;15.15;;
45762;SDS011;37512;52.408;13.356;2022-10-14T05:50:11;25.23;;;15.88;;
45762;SDS011;37512;52.408;13.356;2022-10-14T05:54:13;25.88;;;15.05;;
45762;SDS011;37512;52.408;13.356;2022-10-14T05:58:14;23.88;;;14.30;;
45762;SDS011;37512;52.408;13.356;2022-10-14T06:02:16;22.35;;;14.55;;
45762;SDS011;37512;52.408;13.356;2022-10-14T06:06:17;23.60;;;14.63;;
45762;SDS011;37512;52.408;13.356;2022-10-14T06:10:19;21.63;;;15.00;;
45762;SDS011;37512;52.408;13.356;2022-10-14T06:14:21;28.52;;;15.80;;
45762;SDS011;37512;52.408;13.356;2022-10-14T06:18:22;27.80;;;15.73;;
45762;SDS011;37512;52.408;13.356;2022-10-14T06:22:24;24.63;;;14.75;;
45762;SDS011;37512;52.408;13.356;2022-10-14T06:26:25;27.02;;;14.88;;
45762;SDS011;37512;52.408;13.356;2022-10-14T06:30:26;23.13;;;14.07;;
45762;SDS011;37512;52.408;13.356;2022-10-14T06:34:28;24.50;;;13.77;;
45762;SDS011;37512;52.408;13.356;2022-10-14T06:38:29;26.77;;;15.48;;
45762;SDS011;37512;52.408;13.356;2022-10-14T06:42:32;22.63;;;14.95;;
45762;SDS011;37512;52.408;13.356;2022-10-14T06:46:34;24.60;;;14.90;;
45762;SDS011;37512;52.408;13.356;2022-10-14T06:50:36;26.00;;;15.60;;
45762;SDS011;37512;52.408;13.356;2022-10-14T06:54:37;26.73;;;14.85;;
45762;SDS011;37512;52.408;13.356;2022-10-14T06:58:40;26.45;;;14.43;;
45762;SDS011;37512;52.408;13.356;2022-10-14T07:02:41;23.30;;;14.38;;
45762;SDS011;37512;52.408;13.356;2022-10-14T07:06:42;26.15;;;15.88;;
45762;SDS011;37512;52.408;13.356;2022-10-14T07:10:45;25.95;;;15.25;;
45762;SDS011;37512;52.408;13.356;2022-10-14T07:14:47;29.42;;;15.10;;
45762;SDS011;37512;52.408;13.356;2022-10-14T07:18:49;24.48;;;15.32;;
45762;SDS011;37512;52.408;13.356;2022-10-14T07:22:53;26.38;;;14.50;;
45762;SDS011;37512;52.408;13.356;2022-10-14T07:26:55;24.27;;;14.68;;
45762;SDS011;37512;52.408;13.356;2022-10-14T07:31:01;27.67;;;16.27;;
45762;SDS011;37512;52.408;13.356;2022-10-14T07:35:09;25.95;;;16.60;;
45762;SDS011;37512;52.408;13.356;2022-10-14T07:39:11;29.48;;;15.70;;
45762;SDS011;37512;52.408;13.356;2022-10-14T07:43:13;28.13;;;15.50;;
45762;SDS011;37512;52.408;13.356;2022-10-14T07:47:14;28.27;;;15.95;;
45762;SDS011;37512;52.408;13.356;2022-10-14T07:51:16;23.88;;;16.20;;
45762;SDS011;37512;52.408;13.356;2022-10-14T07:55:17;26.33;;;16.60;;
45762;SDS011;37512;52.408;13.356;2022-10-14T07:59:19;25.02;;;15.45;;
45762;SDS011;37512;52.408;13.356;2022-10-14T08:03:22;24.92;;;14.90;;
45762;SDS011;37512;52.408;13.356;2022-10-14T08:07:24;27.85;;;15.40;;
45762;SDS011;37512;52.408;13.356;2022-10-14T08:11:27;21.38;;;14.38;;
45762;SDS011;37512;52.408;13.356;2022-10-14T08:15:39;22.45;;;15.05;;
45762;SDS011;37512;52.408;13.356;2022-10-14T08:19:41;23.85;;;15.35;;
45762;SDS011;37512;52.408;13.356;2022-10-14T08:23:43;22.45;;;12.93;;
45762;SDS011;37512;52.408;13.356;2022-10-14T08:27:47;27.40;;;14.48;;
45762;SDS011;37512;52.408;13.356;2022-10-14T08:31:50;25.15;;;15.30;;
45762;SDS011;37512;52.408;13.356;2022-10-14T08:35:52;24.95;;;13.60;;
45762;SDS011;37512;52.408;13.356;2022-10-14T08:39:54;22.80;;;14.38;;
45762;SDS011;37512;52.408;13.356;2022-10-14T08:44:12;22.05;;;13.90;;
45762;SDS011;37512;52.408;13.356;2022-10-14T08:48:20;29.48;;;14.30;;
45762;SDS011;37512;52.408;13.356;2022-10-14T08:52:26;29.40;;;15.20;;
45762;SDS011;37512;52.408;13.356;2022-10-14T08:56:38;25.00;;;14.43;;
45762;SDS011;37512;52.408;13.356;2022-10-14T09:00:40;25.67;;;14.38;;
45762;SDS011;37512;52.408;13.356;2022-10-14T09:04:45;25.67;;;14.88;;
45762;SDS011;37512;52.408;13.356;2022-10-14T09:08:47;22.45;;;14.15;;
45762;SDS011;37512;52.408;13.356;2022-10-14T09:12:51;23.05;;;13.82;;
45762;SDS011;37512;52.408;13.356;2022-10-14T09:16:58;18.92;;;13.88;;
45762;SDS011;37512;52.408;13.356;2022-10-14T09:25:50;20.58;;;14.02;;
45762;SDS011;37512;52.408;13.356;2022-10-14T09:29:59;22.13;;;13.40;;
45762;SDS011;37512;52.408;13.356;2022-10-14T09:34:02;27.95;;;14.88;;
45762;SDS011;37512;52.408;13.356;2022-10-14T09:38:03;23.70;;;14.00;;
45762;SDS011;37512;52.408;13.356;2022-10-14T09:42:06;27.10;;;14.85;;
45762;SDS011;37512;52.408;13.356;2022-10-14T09:46:17;23.33;;;14.38;;
45762;SDS011;37512;52.408;13.356;2022-10-14T09:50:21;23.20;;;14.23;;
45762;SDS011;37512;52.408;13.356;2022-10-14T09:54:34;20.73;;;13.77;;
45762;SDS011;37512;52.408;13.356;2022-10-14T10:02:53;21.58;;;12.75;;
45762;SDS011;37512;52.408;13.356;2022-10-14T10:06:55;18.83;;;13.77;;
45762;SDS011;37512;52.408;13.356;2022-10-14T10:11:02;20.63;;;13.23;;
45762;SDS011;37512;52.408;13.356;2022-10-14T10:19:33;23.20;;;14.05;;
45762;SDS011;37512;52.408;13.356;2022-10-14T10:23:51;20.52;;;12.40;;
45762;SDS011;37512;52.408;13.356;2022-10-14T10:27:54;17.70;;;12.52;;
45762;SDS011;37512;52.408;13.356;2022-10-14T10:32:01;24.15;;;12.27;;
45762;SDS011;37512;52.408;13.356;2022-10-14T10:36:27;19.60;;;11.18;;
45762;SDS011;37512;52.408;13.356;2022-10-14T10:45:04;18.08;;;11.43;;
45762;SDS011;37512;52.408;13.356;2022-10-14T10:53:48;20.25;;;11.13;;
45762;SDS011;37512;52.408;13.356;2022-10-14T10:58:21;17.50;;;11.57;;
45762;SDS011;37512;52.408;13.356;2022-10-14T11:06:39;15.15;;;11.45;;
45762;SDS011;37512;52.408;13.356;2022-10-14T11:11:26;18.02;;;10.77;;
45762;SDS011;37512;52.408;13.356;2022-10-14T11:15:58;19.08;;;9.85;;
45762;SDS011;37512;52.408;13.356;2022-10-14T11:28:49;15.75;;;8.70;;
45762;SDS011;37512;52.408;13.356;2022-10-14T11:33:00;12.80;;;8.55;;
45762;SDS011;37512;52.408;13.356;2022-10-14T11:41:33;14.10;;;6.72;;
45762;SDS011;37512;52.408;13.356;2022-10-14T11:49:58;9.60;;;6.97;;
45762;SDS011;37512;52.408;13.356;2022-10-14T11:54:06;12.10;;;7.35;;
45762;SDS011;37512;52.408;13.356;2022-10-14T11:58:13;11.57;;;6.55;;
45762;SDS011;37512;52.408;13.356;2022-10-14T12:06:23;11.60;;;6.15;;
45762;SDS011;37512;52.408;13.356;2022-10-14T12:10:43;9.57;;;6.77;;
45762;SDS011;37512;52.408;13.356;2022-10-14T12:14:48;14.05;;;7.50;;
45762;SDS011;37512;52.408;13.356;2022-10-14T12:18:56;12.40;;;6.43;;
45762;SDS011;37512;52.408;13.356;2022-10-14T12:22:57;7.57;;;5.55;;
45762;SDS011;37512;52.408;13.356;2022-10-14T12:27:00;8.85;;;5.55;;
45762;SDS011;37512;52.408;13.356;2022-10-14T12:35:44;9.10;;;5.38;;
45762;SDS011;37512;52.408;13.356;2022-10-14T12:39:46;11.93;;;5.57;;
45762;SDS011;37512;52.408;13.356;2022-10-14T12:43:57;9.82;;;4.90;;
45762;SDS011;37512;52.408;13.356;2022-10-14T12:52:17;7.40;;;5.13;;
45762;SDS011;37512;52.408;13.356;2022-10-14T12:56:28;8.25;;;5.18;;
45762;SDS011;37512;52.408;13.356;2022-10-14T13:00:36;8.20;;;5.00;;
45762;SDS011;37512;52.408;13.356;2022-10-14T13:04:50;8.45;;;4.70;;
45762;SDS011;37512;52.408;13.356;2022-10-14T13:17:43;6.57;;;4.90;;
45762;SDS011;37512;52.408;13.356;2022-10-14T13:25:48;8.35;;;5.20;;
45762;SDS011;37512;52.408;13.356;2022-10-14T13:34:19;7.90;;;4.97;;
45762;SDS011;37512;52.408;13.356;2022-10-14T13:38:31;7.78;;;4.43;;
45762;SDS011;37512;52.408;13.356;2022-10-14T13:42:35;8.23;;;4.53;;
45762;SDS011;37512;52.408;13.356;2022-10-14T13:46:42;7.50;;;4.60;;
45762;SDS011;37512;52.408;13.356;2022-10-14T13:50:49;7.07;;;4.75;;
45762;SDS011;37512;52.408;13.356;2022-10-14T13:59:18;8.95;;;4.93;;
45762;SDS011;37512;52.408;13.356;2022-10-14T14:03:43;7.53;;;4.70;;
45762;SDS011;37512;52.408;13.356;2022-10-14T14:07:46;10.00;;;5.15;;
45762;SDS011;37512;52.408;13.356;2022-10-14T14:12:10;8.05;;;4.03;;
45762;SDS011;37512;52.408;13.356;2022-10-14T14:16:17;6.53;;;4.18;;
45762;SDS011;37512;52.408;13.356;2022-10-14T14:20:23;6.30;;;4.28;;
45762;SDS011;37512;52.408;13.356;2022-10-14T14:24:26;19.83;;;4.53;;
45762;SDS011;37512;52.408;13.356;2022-10-14T14:28:29;5.25;;;3.97;;
45762;SDS011;37512;52.408;13.356;2022-10-14T14:32:34;5.40;;;3.80;;
45762;SDS011;37512;52.408;13.356;2022-10-14T14:36:36;7.38;;;3.70;;
45762;SDS011;37512;52.408;13.356;2022-10-14T14:41:15;5.93;;;4.13;;
45762;SDS011;37512;52.408;13.356;2022-10-14T14:45:21;5.57;;;3.47;;
45762;SDS011;37512;52.408;13.356;2022-10-14T14:49:26;5.05;;;3.85;;
45762;SDS011;37512;52.408;13.356;2022-10-14T14:53:30;5.82;;;4.18;;
45762;SDS011;37512;52.408;13.356;2022-10-14T14:57:31;7.05;;;3.58;;
45762;SDS011;37512;52.408;13.356;2022-10-14T15:01:33;4.07;;;3.30;;
45762;SDS011;37512;52.408;13.356;2022-10-14T15:05:34;6.75;;;4.13;;
45762;SDS011;37512;52.408;13.356;2022-10-14T15:09:41;5.60;;;3.95;;
45762;SDS011;37512;52.408;13.356;2022-10-14T15:26:34;5.72;;;3.85;;
45762;SDS011;37512;52.408;13.356;2022-10-14T15:34:40;6.15;;;3.70;;
45762;SDS011;37512;52.408;13.356;2022-10-14T15:38:42;13.85;;;7.32;;
45762;SDS011;37512;52.408;13.356;2022-10-14T15:42:44;8.05;;;5.60;;
45762;SDS011;37512;52.408;13.356;2022-10-14T15:46:46;6.97;;;3.85;;
45762;SDS011;37512;52.408;13.356;2022-10-14T15:51:06;5.57;;;3.70;;
45762;SDS011;37512;52.408;13.356;2022-10-14T15:55:22;11.93;;;4.30;;
45762;SDS011;37512;52.408;13.356;2022-10-14T15:59:29;6.68;;;3.78;;
45762;SDS011;37512;52.408;13.356;2022-10-14T16:03:31;8.98;;;3.78;;
45762;SDS011;37512;52.408;13.356;2022-10-14T16:07:40;6.68;;;3.95;;
45762;SDS011;37512;52.408;13.356;2022-10-14T16:11:42;5.53;;;3.72;;
45762;SDS011;37512;52.408;13.356;2022-10-14T16:19:59;8.95;;;4.80;;
45762;SDS011;37512;52.408;13.356;2022-10-14T16:24:00;8.50;;;4.72;;
45762;SDS011;37512;52.408;13.356;2022-10-14T16:28:03;6.95;;;4.63;;
45762;SDS011;37512;52.408;13.356;2022-10-14T16:32:10;7.05;;;4.10;;
45762;SDS011;37512;52.408;13.356;2022-10-14T16:36:13;6.47;;;4.90;;
45762;SDS011;37512;52.408;13.356;2022-10-14T16:40:15;6.20;;;4.30;;
45762;SDS011;37512;52.408;13.356;2022-10-14T16:44:16;8.18;;;4.88;;
45762;SDS011;37512;52.408;13.356;2022-10-14T16:48:28;5.85;;;4.47;;
45762;SDS011;37512;52.408;13.356;2022-10-14T16:52:29;10.25;;;4.85;;
45762;SDS011;37512;52.408;13.356;2022-10-14T16:56:51;6.53;;;4.68;;
45762;SDS011;37512;52.408;13.356;2022-10-14T17:00:52;9.68;;;5.55;;
45762;SDS011;37512;52.408;13.356;2022-10-14T17:04:54;6.50;;;4.60;;
45762;SDS011;37512;52.408;13.356;2022-10-14T17:08:56;7.45;;;5.43;;
45762;SDS011;37512;52.408;13.356;2022-10-14T17:12:58;8.32;;;5.80;;
45762;SDS011;37512;52.408;13.356;2022-10-14T17:16:59;7.53;;;5.40;;
45762;SDS011;37512;52.408;13.356;2022-10-14T17:21:02;6.88;;;5.50;;
45762;SDS011;37512;52.408;13.356;2022-10-14T17:25:08;8.20;;;5.72;;
45762;SDS011;37512;52.408;13.356;2022-10-14T17:29:10;8.50;;;5.82;;
45762;SDS011;37512;52.408;13.356;2022-10-14T17:33:12;9.02;;;6.05;;
45762;SDS011;37512;52.408;13.356;2022-10-14T17:37:13;9.70;;;5.80;;
45762;SDS011;37512;52.408;13.356;2022-10-14T17:41:15;18.17;;;11.98;;
45762;SDS011;37512;52.408;13.356;2022-10-14T17:45:18;8.32;;;6.07;;
45762;SDS011;37512;52.408;13.356;2022-10-14T17:49:19;9.75;;;6.63;;
45762;SDS011;37512;52.408;13.356;2022-10-14T17:53:21;11.27;;;6.18;;
45762;SDS011;37512;52.408;13.356;2022-10-14T17:57:23;8.43;;;5.90;;
45762;SDS011;37512;52.408;13.356;2022-10-14T18:01:25;9.93;;;6.43;;
45762;SDS011;37512;52.408;13.356;2022-10-14T18:05:43;11.98;;;6.90;;
45762;SDS011;37512;52.408;13.356;2022-10-14T18:09:49;8.10;;;6.03;;
45762;SDS011;37512;52.408;13.356;2022-10-14T18:13:51;9.15;;;6.63;;
45762;SDS011;37512;52.408;13.356;2022-10-14T18:17:56;8.02;;;6.03;;
45762;SDS011;37512;52.408;13.356;2022-10-14T18:21:58;8.70;;;6.32;;
45762;SDS011;37512;52.408;13.356;2022-10-14T18:26:00;9.02;;;6.72;;
45762;SDS011;37512;52.408;13.356;2022-10-14T18:30:11;8.57;;;5.85;;
45762;SDS011;37512;52.408;13.356;2022-10-14T18:34:12;7.18;;;5.75;;
45762;SDS011;37512;52.408;13.356;2022-10-14T18:38:14;7.72;;;5.95;;
45762;SDS011;37512;52.408;13.356;2022-10-14T18:42:15;13.02;;;5.90;;
45762;SDS011;37512;52.408;13.356;2022-10-14T18:46:21;7.88;;;5.68;;
45762;SDS011;37512;52.408;13.356;2022-10-14T18:50:25;10.70;;;5.68;;
45762;SDS011;37512;52.408;13.356;2022-10-14T18:54:26;8.52;;;5.45;;
45762;SDS011;37512;52.408;13.356;2022-10-14T18:58:30;5.95;;;5.13;;
45762;SDS011;37512;52.408;13.356;2022-10-14T19:02:34;8.52;;;5.70;;
45762;SDS011;37512;52.408;13.356;2022-10-14T19:06:35;8.73;;;5.80;;
45762;SDS011;37512;52.408;13.356;2022-10-14T19:10:37;7.53;;;5.57;;
45762;SDS011;37512;52.408;13.356;2022-10-14T19:14:38;7.90;;;5.72;;
45762;SDS011;37512;52.408;13.356;2022-10-14T19:18:40;7.40;;;6.15;;
45762;SDS011;37512;52.408;13.356;2022-10-14T19:22:41;10.50;;;6.53;;
45762;SDS011;37512;52.408;13.356;2022-10-14T19:26:45;11.63;;;5.90;;
45762;SDS011;37512;52.408;13.356;2022-10-14T19:30:47;7.15;;;5.15;;
45762;SDS011;37512;52.408;13.356;2022-10-14T19:34:48;11.93;;;6.25;;
45762;SDS011;37512;52.408;13.356;2022-10-14T19:38:51;8.40;;;5.97;;
45762;SDS011;37512;52.408;13.356;2022-10-14T19:42:57;7.03;;;5.85;;
45762;SDS011;37512;52.408;13.356;2022-10-14T19:46:59;7.28;;;5.78;;
45762;SDS011;37512;52.408;13.356;2022-10-14T19:51:00;9.23;;;6.55;;
45762;SDS011;37512;52.408;13.356;2022-10-14T19:55:07;6.88;;;5.35;;
45762;SDS011;37512;52.408;13.356;2022-10-14T19:59:09;8.70;;;6.13;;
45762;SDS011;37512;52.408;13.356;2022-10-14T20:03:11;14.75;;;5.95;;
45762;SDS011;37512;52.408;13.356;2022-10-14T20:07:12;19.17;;;5.95;;
45762;SDS011;37512;52.408;13.356;2022-10-14T20:11:15;8.95;;;5.57;;
45762;SDS011;37512;52.408;13.356;2022-10-14T20:15:18;9.38;;;5.93;;
45762;SDS011;37512;52.408;13.356;2022-10-14T20:19:20;8.90;;;6.93;;
45762;SDS011;37512;52.408;13.356;2022-10-14T20:23:22;8.70;;;6.18;;
45762;SDS011;37512;52.408;13.356;2022-10-14T20:27:24;12.18;;;7.22;;
45762;SDS011;37512;52.408;13.356;2022-10-14T20:31:26;9.68;;;6.65;;
45762;SDS011;37512;52.408;13.356;2022-10-14T20:35:28;10.85;;;7.13;;
45762;SDS011;37512;52.408;13.356;2022-10-14T20:39:34;10.70;;;6.97;;
45762;SDS011;37512;52.408;13.356;2022-10-14T20:43:36;12.52;;;7.30;;
45762;SDS011;37512;52.408;13.356;2022-10-14T20:47:40;11.80;;;6.25;;
45762;SDS011;37512;52.408;13.356;2022-10-14T20:51:41;10.05;;;7.05;;
45762;SDS011;37512;52.408;13.356;2022-10-14T20:55:43;10.77;;;7.55;;
45762;SDS011;37512;52.408;13.356;2022-10-14T20:59:44;11.38;;;7.45;;
45762;SDS011;37512;52.408;13.356;2022-10-14T21:03:46;11.45;;;7.88;;
45762;SDS011;37512;52.408;13.356;2022-10-14T21:07:48;11.68;;;7.97;;
45762;SDS011;37512;52.408;13.356;2022-10-14T21:11:49;13.65;;;8.55;;
45762;SDS011;37512;52.408;13.356;2022-10-14T21:15:50;17.98;;;9.57;;
45762;SDS011;37512;52.408;13.356;2022-10-14T21:19:52;12.25;;;8.07;;
45762;SDS011;37512;52.408;13.356;2022-10-14T21:23:54;13.55;;;8.65;;
45762;SDS011;37512;52.408;13.356;2022-10-14T21:27:56;14.63;;;9.82;;
45762;SDS011;37512;52.408;13.356;2022-10-14T21:31:58;18.10;;;10.13;;
45762;SDS011;37512;52.408;13.356;2022-10-14T21:36:17;13.32;;;9.70;;
45762;SDS011;37512;52.408;13.356;2022-10-14T21:40:19;18.70;;;11.45;;
45762;SDS011;37512;52.408;13.356;2022-10-14T21:44:20;17.25;;;10.40;;
45762;SDS011;37512;52.408;13.356;2022-10-14T21:48:21;20.10;;;10.93;;
45762;SDS011;37512;52.408;13.356;2022-10-14T21:52:23;17.42;;;10.63;;
45762;SDS011;37512;52.408;13.356;2022-10-14T21:56:25;16.85;;;12.13;;
45762;SDS011;37512;52.408;13.356;2022-10-14T22:00:27;20.75;;;12.15;;
45762;SDS011;37512;52.408;13.356;2022-10-14T22:04:29;21.48;;;12.73;;
45762;SDS011;37512;52.408;13.356;2022-10-14T22:08:38;21.48;;;12.80;;
45762;SDS011;37512;52.408;13.356;2022-10-14T22:12:44;21.88;;;12.25;;
45762;SDS011;37512;52.408;13.356;2022-10-14T22:16:46;19.75;;;12.90;;
45762;SDS011;37512;52.408;13.356;2022-10-14T22:20:49;19.48;;;13.55;;
45762;SDS011;37512;52.408;13.356;2022-10-14T22:24:59;19.42;;;12.98;;
45762;SDS011;37512;52.408;13.356;2022-10-14T22:29:01;22.80;;;13.50;;
45762;SDS011;37512;52.408;13.356;2022-10-14T22:33:21;22.27;;;13.70;;
45762;SDS011;37512;52.408;13.356;2022-10-14T22:37:23;22.20;;;14.32;;
45762;SDS011;37512;52.408;13.356;2022-10-14T22:41:25;23.67;;;13.75;;
45762;SDS011;37512;52.408;13.356;2022-10-14T22:45:34;20.42;;;14.13;;
45762;SDS011;37512;52.408;13.356;2022-10-14T22:49:35;19.30;;;13.10;;
45762;SDS011;37512;52.408;13.356;2022-10-14T22:53:37;19.60;;;13.13;;
45762;SDS011;37512;52.408;13.356;2022-10-14T22:57:40;22.88;;;13.27;;
45762;SDS011;37512;52.408;13.356;2022-10-14T23:01:41;21.33;;;13.88;;
45762;SDS011;37512;52.408;13.356;2022-10-14T23:05:43;23.35;;;14.75;;
45762;SDS011;37512;52.408;13.356;2022-10-14T23:09:44;19.45;;;12.82;;
45762;SDS011;37512;52.408;13.356;2022-10-14T23:13:46;22.52;;;14.18;;
45762;SDS011;37512;52.408;13.356;2022-10-14T23:17:48;20.25;;;13.30;;
45762;SDS011;37512;52.408;13.356;2022-10-14T23:21:50;22.40;;;14.02;;
45762;SDS011;37512;52.408;13.356;2022-10-14T23:25:51;19.48;;;13.85;;
45762;SDS011;37512;52.408;13.356;2022-10-14T23:29:53;20.60;;;14.70;;
45762;SDS011;37512;52.408;13.356;2022-10-14T23:33:56;20.88;;;14.55;;
45762;SDS011;37512;52.408;13.356;2022-10-14T23:37:59;22.30;;;14.38;;
45762;SDS011;37512;52.408;13.356;2022-10-14T23:42:00;21.08;;;14.07;;
45762;SDS011;37512;52.408;13.356;2022-10-14T23:46:02;20.98;;;14.60;;
45762;SDS011;37512;52.408;13.356;2022-10-14T23:50:05;24.83;;;14.55;;
45762;SDS011;37512;52.408;13.356;2022-10-14T23:54:06;24.33;;;14.85;;
45762;SDS011;37512;52.408;13.356;2022-10-14T23:58:08;25.10;;;15.05;;
